sensor_id;sensor_type;location;lat;lon;timestamp;P1;durP1;ratioP1;P2;durP2;ratioP2
55815;SDS011;41744;52.404;16.942;2023-08-30T00:01:54;4.38;;;2.55;;
55815;SDS011;41744;52.404;16.942;2023-08-30T00:04:20;4.18;;;2.00;;
55815;SDS011;41744;52.404;16.942;2023-08-30T00:06:47;5.32;;;3.00;;
55815;SDS011;41744;52.404;16.942;2023-08-30T00:09:13;6.00;;;2.95;;
55815;SDS011;41744;52.404;16.942;2023-08-30T00:11:39;4.88;;;2.80;;
55815;SDS011;41744;52.404;16.942;2023-08-30T00:17:09;4.90;;;2.90;;
55815;SDS011;41744;52.404;16.942;2023-08-30T00:19:35;4.97;;;2.78;;
55815;SDS011;41744;52.404;16.942;2023-08-30T00:22:01;4.78;;;2.70;;
55815;SDS011;41744;52.404;16.942;2023-08-30T00:24:27;4.05;;;2.65;;
55815;SDS011;41744;52.404;16.942;2023-08-30T00:26:54;3.88;;;2.58;;
55815;SDS011;41744;52.404;16.942;2023-08-30T00:29:20;4.32;;;2.80;;
55815;SDS011;41744;52.404;16.942;2023-08-30T00:31:46;5.20;;;3.00;;
55815;SDS011;41744;52.404;16.942;2023-08-30T00:34:12;3.90;;;2.70;;
55815;SDS011;41744;52.404;16.942;2023-08-30T00:36:38;4.65;;;2.78;;
55815;SDS011;41744;52.404;16.942;2023-08-30T00:39:04;5.15;;;2.65;;
55815;SDS011;41744;52.404;16.942;2023-08-30T00:41:30;4.00;;;2.75;;
55815;SDS011;41744;52.404;16.942;2023-08-30T00:47:01;7.57;;;2.53;;
55815;SDS011;41744;52.404;16.942;2023-08-30T00:49:28;3.63;;;2.55;;
55815;SDS011;41744;52.404;16.942;2023-08-30T00:51:55;3.88;;;2.53;;
55815;SDS011;41744;52.404;16.942;2023-08-30T00:54:22;4.95;;;2.83;;
55815;SDS011;41744;52.404;16.942;2023-08-30T00:56:48;5.18;;;3.05;;
55815;SDS011;41744;52.404;16.942;2023-08-30T00:59:15;4.45;;;3.10;;
55815;SDS011;41744;52.404;16.942;2023-08-30T01:01:41;4.05;;;2.78;;
55815;SDS011;41744;52.404;16.942;2023-08-30T01:04:07;4.57;;;2.83;;
55815;SDS011;41744;52.404;16.942;2023-08-30T01:06:33;5.22;;;2.50;;
55815;SDS011;41744;52.404;16.942;2023-08-30T01:09:00;3.35;;;2.25;;
55815;SDS011;41744;52.404;16.942;2023-08-30T01:11:31;3.38;;;2.50;;
55815;SDS011;41744;52.404;16.942;2023-08-30T01:17:01;4.35;;;2.45;;
55815;SDS011;41744;52.404;16.942;2023-08-30T01:21:58;3.33;;;2.08;;
55815;SDS011;41744;52.404;16.942;2023-08-30T01:27:31;4.65;;;1.92;;
55815;SDS011;41744;52.404;16.942;2023-08-30T01:30:00;4.15;;;2.05;;
55815;SDS011;41744;52.404;16.942;2023-08-30T01:32:27;3.75;;;1.67;;
55815;SDS011;41744;52.404;16.942;2023-08-30T01:34:53;2.10;;;1.45;;
55815;SDS011;41744;52.404;16.942;2023-08-30T01:37:21;2.22;;;1.50;;
55815;SDS011;41744;52.404;16.942;2023-08-30T01:39:47;1.92;;;1.52;;
55815;SDS011;41744;52.404;16.942;2023-08-30T01:42:14;4.00;;;1.83;;
55815;SDS011;41744;52.404;16.942;2023-08-30T01:44:40;3.33;;;1.70;;
55815;SDS011;41744;52.404;16.942;2023-08-30T01:47:09;2.90;;;2.00;;
55815;SDS011;41744;52.404;16.942;2023-08-30T01:49:36;4.05;;;1.67;;
55815;SDS011;41744;52.404;16.942;2023-08-30T01:52:02;2.65;;;1.95;;
55815;SDS011;41744;52.404;16.942;2023-08-30T01:57:32;3.08;;;1.98;;
55815;SDS011;41744;52.404;16.942;2023-08-30T01:59:58;2.63;;;1.75;;
55815;SDS011;41744;52.404;16.942;2023-08-30T02:02:28;2.58;;;1.75;;
55815;SDS011;41744;52.404;16.942;2023-08-30T02:04:54;2.92;;;1.90;;
55815;SDS011;41744;52.404;16.942;2023-08-30T02:07:21;6.28;;;2.00;;
55815;SDS011;41744;52.404;16.942;2023-08-30T02:09:52;2.85;;;1.98;;
55815;SDS011;41744;52.404;16.942;2023-08-30T02:12:19;4.22;;;1.90;;
55815;SDS011;41744;52.404;16.942;2023-08-30T02:17:50;2.55;;;1.58;;
55815;SDS011;41744;52.404;16.942;2023-08-30T02:20:16;1.63;;;1.40;;
55815;SDS011;41744;52.404;16.942;2023-08-30T02:22:43;1.63;;;1.25;;
55815;SDS011;41744;52.404;16.942;2023-08-30T02:25:09;2.75;;;1.40;;
55815;SDS011;41744;52.404;16.942;2023-08-30T02:27:35;1.77;;;1.35;;
55815;SDS011;41744;52.404;16.942;2023-08-30T02:30:01;2.40;;;1.60;;
55815;SDS011;41744;52.404;16.942;2023-08-30T02:32:28;2.15;;;1.42;;
55815;SDS011;41744;52.404;16.942;2023-08-30T02:37:58;2.05;;;1.20;;
55815;SDS011;41744;52.404;16.942;2023-08-30T02:40:24;2.92;;;1.50;;
55815;SDS011;41744;52.404;16.942;2023-08-30T02:42:50;1.85;;;1.30;;
55815;SDS011;41744;52.404;16.942;2023-08-30T02:45:16;2.53;;;1.60;;
55815;SDS011;41744;52.404;16.942;2023-08-30T02:47:44;1.95;;;1.40;;
55815;SDS011;41744;52.404;16.942;2023-08-30T02:50:10;3.60;;;1.58;;
55815;SDS011;41744;52.404;16.942;2023-08-30T02:52:36;2.63;;;2.13;;
55815;SDS011;41744;52.404;16.942;2023-08-30T02:55:03;2.65;;;1.65;;
55815;SDS011;41744;52.404;16.942;2023-08-30T02:57:29;2.10;;;1.60;;
55815;SDS011;41744;52.404;16.942;2023-08-30T02:59:55;2.45;;;1.70;;
55815;SDS011;41744;52.404;16.942;2023-08-30T03:02:21;3.15;;;1.50;;
55815;SDS011;41744;52.404;16.942;2023-08-30T03:07:52;2.30;;;1.52;;
55815;SDS011;41744;52.404;16.942;2023-08-30T03:10:18;2.10;;;1.50;;
55815;SDS011;41744;52.404;16.942;2023-08-30T03:12:44;2.35;;;1.60;;
55815;SDS011;41744;52.404;16.942;2023-08-30T03:15:10;2.80;;;1.73;;
55815;SDS011;41744;52.404;16.942;2023-08-30T03:17:36;2.72;;;1.63;;
55815;SDS011;41744;52.404;16.942;2023-08-30T03:20:03;2.67;;;1.58;;
55815;SDS011;41744;52.404;16.942;2023-08-30T03:22:30;2.33;;;1.77;;
55815;SDS011;41744;52.404;16.942;2023-08-30T03:24:57;2.83;;;1.85;;
55815;SDS011;41744;52.404;16.942;2023-08-30T03:27:23;3.17;;;1.98;;
55815;SDS011;41744;52.404;16.942;2023-08-30T03:29:49;2.17;;;1.60;;
55815;SDS011;41744;52.404;16.942;2023-08-30T03:32:19;3.20;;;2.10;;
55815;SDS011;41744;52.404;16.942;2023-08-30T03:37:49;4.40;;;2.25;;
55815;SDS011;41744;52.404;16.942;2023-08-30T03:40:15;2.83;;;1.80;;
55815;SDS011;41744;52.404;16.942;2023-08-30T03:42:41;3.95;;;1.70;;
55815;SDS011;41744;52.404;16.942;2023-08-30T03:45:07;3.40;;;1.67;;
55815;SDS011;41744;52.404;16.942;2023-08-30T03:47:33;2.72;;;1.50;;
55815;SDS011;41744;52.404;16.942;2023-08-30T03:49:59;2.50;;;1.45;;
55815;SDS011;41744;52.404;16.942;2023-08-30T03:52:25;3.00;;;1.58;;
55815;SDS011;41744;52.404;16.942;2023-08-30T03:57:55;2.53;;;1.52;;
55815;SDS011;41744;52.404;16.942;2023-08-30T04:00:21;2.55;;;1.60;;
55815;SDS011;41744;52.404;16.942;2023-08-30T04:02:47;3.17;;;1.58;;
55815;SDS011;41744;52.404;16.942;2023-08-30T04:08:16;2.83;;;1.50;;
55815;SDS011;41744;52.404;16.942;2023-08-30T04:10:42;2.85;;;1.90;;
55815;SDS011;41744;52.404;16.942;2023-08-30T04:13:12;2.55;;;1.63;;
55815;SDS011;41744;52.404;16.942;2023-08-30T04:15:38;3.28;;;1.60;;
55815;SDS011;41744;52.404;16.942;2023-08-30T04:18:05;4.10;;;1.80;;
55815;SDS011;41744;52.404;16.942;2023-08-30T04:20:31;2.97;;;1.90;;
55815;SDS011;41744;52.404;16.942;2023-08-30T04:22:57;2.80;;;1.70;;
55815;SDS011;41744;52.404;16.942;2023-08-30T04:28:29;4.55;;;2.28;;
55815;SDS011;41744;52.404;16.942;2023-08-30T04:30:56;4.32;;;2.53;;
55815;SDS011;41744;52.404;16.942;2023-08-30T04:33:22;4.03;;;1.95;;
55815;SDS011;41744;52.404;16.942;2023-08-30T04:35:52;3.78;;;2.28;;
55815;SDS011;41744;52.404;16.942;2023-08-30T04:38:18;4.85;;;2.00;;
55815;SDS011;41744;52.404;16.942;2023-08-30T04:40:45;3.47;;;2.00;;
55815;SDS011;41744;52.404;16.942;2023-08-30T04:43:11;2.92;;;1.90;;
55815;SDS011;41744;52.404;16.942;2023-08-30T04:48:40;4.35;;;1.85;;
55815;SDS011;41744;52.404;16.942;2023-08-30T04:51:06;2.67;;;1.85;;
55815;SDS011;41744;52.404;16.942;2023-08-30T04:53:32;3.85;;;2.15;;
55815;SDS011;41744;52.404;16.942;2023-08-30T04:55:58;3.60;;;1.50;;
55815;SDS011;41744;52.404;16.942;2023-08-30T04:58:25;2.60;;;1.77;;
55815;SDS011;41744;52.404;16.942;2023-08-30T05:00:51;3.80;;;2.22;;
55815;SDS011;41744;52.404;16.942;2023-08-30T05:03:17;4.20;;;2.10;;
55815;SDS011;41744;52.404;16.942;2023-08-30T05:05:46;3.63;;;2.30;;
55815;SDS011;41744;52.404;16.942;2023-08-30T05:08:12;4.05;;;2.45;;
55815;SDS011;41744;52.404;16.942;2023-08-30T05:10:38;3.33;;;2.22;;
55815;SDS011;41744;52.404;16.942;2023-08-30T05:13:05;3.67;;;2.17;;
55815;SDS011;41744;52.404;16.942;2023-08-30T05:18:34;3.38;;;1.85;;
55815;SDS011;41744;52.404;16.942;2023-08-30T05:21:00;2.75;;;1.88;;
55815;SDS011;41744;52.404;16.942;2023-08-30T05:23:28;3.85;;;1.90;;
55815;SDS011;41744;52.404;16.942;2023-08-30T05:25:54;3.00;;;1.85;;
55815;SDS011;41744;52.404;16.942;2023-08-30T05:28:20;2.28;;;1.40;;
55815;SDS011;41744;52.404;16.942;2023-08-30T05:30:46;4.15;;;1.30;;
55815;SDS011;41744;52.404;16.942;2023-08-30T05:33:12;3.40;;;1.63;;
55815;SDS011;41744;52.404;16.942;2023-08-30T05:35:38;3.10;;;1.27;;
55815;SDS011;41744;52.404;16.942;2023-08-30T05:38:04;2.03;;;1.15;;
55815;SDS011;41744;52.404;16.942;2023-08-30T05:40:30;3.78;;;1.45;;
55815;SDS011;41744;52.404;16.942;2023-08-30T05:42:57;2.08;;;1.20;;
55815;SDS011;41744;52.404;16.942;2023-08-30T05:48:26;1.95;;;0.80;;
55815;SDS011;41744;52.404;16.942;2023-08-30T05:50:52;1.65;;;0.80;;
55815;SDS011;41744;52.404;16.942;2023-08-30T05:53:19;1.52;;;0.93;;
55815;SDS011;41744;52.404;16.942;2023-08-30T05:55:45;2.53;;;0.95;;
55815;SDS011;41744;52.404;16.942;2023-08-30T05:58:11;1.08;;;0.80;;
55815;SDS011;41744;52.404;16.942;2023-08-30T06:00:39;5.55;;;1.20;;
55815;SDS011;41744;52.404;16.942;2023-08-30T06:03:05;3.90;;;1.10;;
55815;SDS011;41744;52.404;16.942;2023-08-30T06:05:31;3.53;;;0.85;;
55815;SDS011;41744;52.404;16.942;2023-08-30T06:07:57;2.25;;;0.90;;
55815;SDS011;41744;52.404;16.942;2023-08-30T06:10:23;9.35;;;1.13;;
55815;SDS011;41744;52.404;16.942;2023-08-30T06:12:49;3.38;;;0.80;;
55815;SDS011;41744;52.404;16.942;2023-08-30T06:18:19;2.97;;;0.88;;
55815;SDS011;41744;52.404;16.942;2023-08-30T06:20:45;5.00;;;0.93;;
55815;SDS011;41744;52.404;16.942;2023-08-30T06:23:11;4.18;;;1.15;;
55815;SDS011;41744;52.404;16.942;2023-08-30T06:25:37;3.88;;;0.90;;
55815;SDS011;41744;52.404;16.942;2023-08-30T06:28:03;7.18;;;1.20;;
55815;SDS011;41744;52.404;16.942;2023-08-30T06:30:29;6.38;;;1.30;;
55815;SDS011;41744;52.404;16.942;2023-08-30T06:32:56;5.20;;;1.10;;
55815;SDS011;41744;52.404;16.942;2023-08-30T06:35:22;5.55;;;1.45;;
55815;SDS011;41744;52.404;16.942;2023-08-30T06:37:48;2.35;;;1.20;;
55815;SDS011;41744;52.404;16.942;2023-08-30T06:40:14;8.52;;;1.30;;
55815;SDS011;41744;52.404;16.942;2023-08-30T06:42:40;3.55;;;0.98;;
55815;SDS011;41744;52.404;16.942;2023-08-30T06:48:10;4.20;;;1.13;;
55815;SDS011;41744;52.404;16.942;2023-08-30T06:50:36;3.72;;;1.30;;
55815;SDS011;41744;52.404;16.942;2023-08-30T06:53:02;2.22;;;1.10;;
55815;SDS011;41744;52.404;16.942;2023-08-30T06:55:28;2.40;;;1.30;;
55815;SDS011;41744;52.404;16.942;2023-08-30T06:57:54;4.32;;;1.25;;
55815;SDS011;41744;52.404;16.942;2023-08-30T07:00:20;5.85;;;1.20;;
55815;SDS011;41744;52.404;16.942;2023-08-30T07:02:46;4.32;;;1.10;;
55815;SDS011;41744;52.404;16.942;2023-08-30T07:05:12;1.98;;;1.05;;
55815;SDS011;41744;52.404;16.942;2023-08-30T07:07:39;5.25;;;1.13;;
55815;SDS011;41744;52.404;16.942;2023-08-30T07:10:05;3.42;;;1.27;;
55815;SDS011;41744;52.404;16.942;2023-08-30T07:12:31;2.15;;;1.10;;
55815;SDS011;41744;52.404;16.942;2023-08-30T07:18:01;2.83;;;1.30;;
55815;SDS011;41744;52.404;16.942;2023-08-30T07:20:27;5.22;;;1.40;;
55815;SDS011;41744;52.404;16.942;2023-08-30T07:22:53;3.40;;;1.27;;
55815;SDS011;41744;52.404;16.942;2023-08-30T07:25:19;4.75;;;1.23;;
55815;SDS011;41744;52.404;16.942;2023-08-30T07:27:45;2.50;;;1.23;;
55815;SDS011;41744;52.404;16.942;2023-08-30T07:30:11;8.07;;;1.30;;
55815;SDS011;41744;52.404;16.942;2023-08-30T07:32:37;3.92;;;1.27;;
55815;SDS011;41744;52.404;16.942;2023-08-30T07:35:03;4.80;;;1.17;;
55815;SDS011;41744;52.404;16.942;2023-08-30T07:37:30;4.85;;;1.50;;
55815;SDS011;41744;52.404;16.942;2023-08-30T07:39:56;5.35;;;1.17;;
55815;SDS011;41744;52.404;16.942;2023-08-30T07:42:22;3.10;;;1.13;;
55815;SDS011;41744;52.404;16.942;2023-08-30T07:47:52;7.82;;;1.50;;
55815;SDS011;41744;52.404;16.942;2023-08-30T07:50:18;4.53;;;1.50;;
55815;SDS011;41744;52.404;16.942;2023-08-30T07:52:44;4.20;;;1.20;;
55815;SDS011;41744;52.404;16.942;2023-08-30T07:58:14;3.97;;;1.17;;
55815;SDS011;41744;52.404;16.942;2023-08-30T08:00:40;3.47;;;0.95;;
55815;SDS011;41744;52.404;16.942;2023-08-30T08:03:06;4.32;;;1.10;;
55815;SDS011;41744;52.404;16.942;2023-08-30T08:05:32;3.05;;;1.10;;
55815;SDS011;41744;52.404;16.942;2023-08-30T08:07:59;3.65;;;1.30;;
55815;SDS011;41744;52.404;16.942;2023-08-30T08:10:32;2.97;;;0.98;;
55815;SDS011;41744;52.404;16.942;2023-08-30T08:13:01;4.38;;;1.00;;
55815;SDS011;41744;52.404;16.942;2023-08-30T08:15:29;3.35;;;1.33;;
55815;SDS011;41744;52.404;16.942;2023-08-30T08:17:59;2.83;;;1.17;;
55815;SDS011;41744;52.404;16.942;2023-08-30T08:20:25;1.88;;;1.30;;
55815;SDS011;41744;52.404;16.942;2023-08-30T08:22:52;2.15;;;1.20;;
55815;SDS011;41744;52.404;16.942;2023-08-30T08:25:18;1.70;;;1.08;;
55815;SDS011;41744;52.404;16.942;2023-08-30T08:27:45;1.77;;;1.08;;
55815;SDS011;41744;52.404;16.942;2023-08-30T08:30:12;2.15;;;0.80;;
55815;SDS011;41744;52.404;16.942;2023-08-30T08:32:38;1.98;;;1.00;;
55815;SDS011;41744;52.404;16.942;2023-08-30T08:38:07;1.40;;;1.00;;
55815;SDS011;41744;52.404;16.942;2023-08-30T08:40:36;2.25;;;1.10;;
55815;SDS011;41744;52.404;16.942;2023-08-30T08:43:03;2.65;;;1.08;;
55815;SDS011;41744;52.404;16.942;2023-08-30T08:45:29;4.32;;;1.10;;
55815;SDS011;41744;52.404;16.942;2023-08-30T08:47:56;2.05;;;1.10;;
55815;SDS011;41744;52.404;16.942;2023-08-30T08:50:32;6.30;;;1.10;;
55815;SDS011;41744;52.404;16.942;2023-08-30T08:52:59;6.32;;;1.25;;
55815;SDS011;41744;52.404;16.942;2023-08-30T08:58:28;6.97;;;1.25;;
55815;SDS011;41744;52.404;16.942;2023-08-30T09:00:54;6.00;;;2.17;;
55815;SDS011;41744;52.404;16.942;2023-08-30T09:03:21;5.45;;;1.58;;
55815;SDS011;41744;52.404;16.942;2023-08-30T09:05:47;4.35;;;1.30;;
55815;SDS011;41744;52.404;16.942;2023-08-30T09:08:14;3.08;;;1.25;;
55815;SDS011;41744;52.404;16.942;2023-08-30T09:10:41;2.92;;;1.05;;
55815;SDS011;41744;52.404;16.942;2023-08-30T09:13:08;5.07;;;0.85;;
55815;SDS011;41744;52.404;16.942;2023-08-30T09:18:43;3.40;;;0.98;;
55815;SDS011;41744;52.404;16.942;2023-08-30T09:21:10;1.58;;;1.05;;
55815;SDS011;41744;52.404;16.942;2023-08-30T09:23:36;5.60;;;1.20;;
55815;SDS011;41744;52.404;16.942;2023-08-30T09:26:03;1.15;;;1.00;;
55815;SDS011;41744;52.404;16.942;2023-08-30T09:28:29;2.00;;;1.00;;
55815;SDS011;41744;52.404;16.942;2023-08-30T09:30:57;4.88;;;1.55;;
55815;SDS011;41744;52.404;16.942;2023-08-30T09:33:32;4.10;;;1.30;;
55815;SDS011;41744;52.404;16.942;2023-08-30T09:39:05;7.07;;;1.30;;
55815;SDS011;41744;52.404;16.942;2023-08-30T09:41:31;4.15;;;1.10;;
55815;SDS011;41744;52.404;16.942;2023-08-30T09:43:58;8.05;;;2.10;;
55815;SDS011;41744;52.404;16.942;2023-08-30T09:46:24;4.32;;;1.17;;
55815;SDS011;41744;52.404;16.942;2023-08-30T09:48:50;2.80;;;1.38;;
55815;SDS011;41744;52.404;16.942;2023-08-30T09:51:16;1.98;;;1.08;;
55815;SDS011;41744;52.404;16.942;2023-08-30T09:53:44;3.88;;;1.30;;
55815;SDS011;41744;52.404;16.942;2023-08-30T09:56:11;1.20;;;0.70;;
55815;SDS011;41744;52.404;16.942;2023-08-30T09:58:39;4.93;;;1.10;;
55815;SDS011;41744;52.404;16.942;2023-08-30T10:01:07;4.47;;;0.93;;
55815;SDS011;41744;52.404;16.942;2023-08-30T10:03:33;6.70;;;1.27;;
55815;SDS011;41744;52.404;16.942;2023-08-30T10:06:00;2.17;;;0.70;;
55815;SDS011;41744;52.404;16.942;2023-08-30T10:08:30;2.33;;;0.90;;
55815;SDS011;41744;52.404;16.942;2023-08-30T10:10:57;4.38;;;1.50;;
55815;SDS011;41744;52.404;16.942;2023-08-30T10:13:24;6.10;;;2.15;;
55815;SDS011;41744;52.404;16.942;2023-08-30T10:19:02;3.72;;;1.48;;
55815;SDS011;41744;52.404;16.942;2023-08-30T10:21:29;4.40;;;1.38;;
55815;SDS011;41744;52.404;16.942;2023-08-30T10:23:56;4.43;;;0.95;;
55815;SDS011;41744;52.404;16.942;2023-08-30T10:26:24;3.38;;;1.33;;
55815;SDS011;41744;52.404;16.942;2023-08-30T10:28:52;2.90;;;1.55;;
55815;SDS011;41744;52.404;16.942;2023-08-30T10:31:19;2.47;;;1.20;;
55815;SDS011;41744;52.404;16.942;2023-08-30T10:33:49;1.75;;;1.08;;
55815;SDS011;41744;52.404;16.942;2023-08-30T10:36:22;2.42;;;0.60;;
55815;SDS011;41744;52.404;16.942;2023-08-30T10:38:57;2.65;;;1.00;;
55815;SDS011;41744;52.404;16.942;2023-08-30T10:41:26;3.90;;;0.90;;
55815;SDS011;41744;52.404;16.942;2023-08-30T10:43:55;2.55;;;0.80;;
55815;SDS011;41744;52.404;16.942;2023-08-30T10:46:30;4.68;;;1.10;;
55815;SDS011;41744;52.404;16.942;2023-08-30T10:49:07;3.10;;;1.08;;
55815;SDS011;41744;52.404;16.942;2023-08-30T10:51:35;2.83;;;1.08;;
55815;SDS011;41744;52.404;16.942;2023-08-30T10:54:22;2.33;;;1.00;;
55815;SDS011;41744;52.404;16.942;2023-08-30T10:56:54;6.43;;;2.90;;
55815;SDS011;41744;52.404;16.942;2023-08-30T10:59:22;4.55;;;2.30;;
55815;SDS011;41744;52.404;16.942;2023-08-30T11:01:50;6.00;;;1.52;;
55815;SDS011;41744;52.404;16.942;2023-08-30T11:07:20;2.95;;;1.15;;
55815;SDS011;41744;52.404;16.942;2023-08-30T11:09:47;1.60;;;1.10;;
55815;SDS011;41744;52.404;16.942;2023-08-30T11:12:13;1.92;;;0.95;;
55815;SDS011;41744;52.404;16.942;2023-08-30T11:17:43;1.88;;;1.00;;
55815;SDS011;41744;52.404;16.942;2023-08-30T11:20:10;2.05;;;0.85;;
55815;SDS011;41744;52.404;16.942;2023-08-30T11:22:39;2.90;;;1.20;;
55815;SDS011;41744;52.404;16.942;2023-08-30T11:28:09;3.42;;;1.00;;
55815;SDS011;41744;52.404;16.942;2023-08-30T11:30:39;1.90;;;1.10;;
55815;SDS011;41744;52.404;16.942;2023-08-30T11:33:05;2.05;;;1.17;;
55815;SDS011;41744;52.404;16.942;2023-08-30T11:35:31;2.15;;;1.00;;
55815;SDS011;41744;52.404;16.942;2023-08-30T11:37:57;9.05;;;4.13;;
55815;SDS011;41744;52.404;16.942;2023-08-30T11:40:23;8.93;;;1.95;;
55815;SDS011;41744;52.404;16.942;2023-08-30T11:42:49;2.65;;;1.33;;
55815;SDS011;41744;52.404;16.942;2023-08-30T11:45:15;1.42;;;1.00;;
55815;SDS011;41744;52.404;16.942;2023-08-30T11:47:41;2.30;;;0.90;;
55815;SDS011;41744;52.404;16.942;2023-08-30T11:50:08;2.90;;;0.90;;
55815;SDS011;41744;52.404;16.942;2023-08-30T11:52:35;1.30;;;0.75;;
55815;SDS011;41744;52.404;16.942;2023-08-30T11:58:12;2.10;;;1.02;;
55815;SDS011;41744;52.404;16.942;2023-08-30T12:00:38;2.47;;;1.10;;
55815;SDS011;41744;52.404;16.942;2023-08-30T12:03:05;1.33;;;0.80;;
55815;SDS011;41744;52.404;16.942;2023-08-30T12:05:31;2.85;;;0.80;;
55815;SDS011;41744;52.404;16.942;2023-08-30T12:08:00;1.10;;;1.00;;
55815;SDS011;41744;52.404;16.942;2023-08-30T12:10:28;1.98;;;0.95;;
55815;SDS011;41744;52.404;16.942;2023-08-30T12:12:55;2.92;;;0.80;;
55815;SDS011;41744;52.404;16.942;2023-08-30T12:18:25;2.13;;;1.00;;
55815;SDS011;41744;52.404;16.942;2023-08-30T12:20:58;1.52;;;0.82;;
55815;SDS011;41744;52.404;16.942;2023-08-30T12:23:25;1.15;;;1.00;;
55815;SDS011;41744;52.404;16.942;2023-08-30T12:28:24;23.90;;;4.35;;
55815;SDS011;41744;52.404;16.942;2023-08-30T12:30:50;32.25;;;7.05;;
55815;SDS011;41744;52.404;16.942;2023-08-30T12:33:16;3.10;;;1.30;;
55815;SDS011;41744;52.404;16.942;2023-08-30T12:38:46;1.75;;;0.90;;
55815;SDS011;41744;52.404;16.942;2023-08-30T12:41:12;5.65;;;1.05;;
55815;SDS011;41744;52.404;16.942;2023-08-30T12:43:38;1.85;;;0.80;;
55815;SDS011;41744;52.404;16.942;2023-08-30T12:46:04;1.65;;;0.88;;
55815;SDS011;41744;52.404;16.942;2023-08-30T12:48:32;1.35;;;1.02;;
55815;SDS011;41744;52.404;16.942;2023-08-30T12:50:58;1.10;;;0.73;;
55815;SDS011;41744;52.404;16.942;2023-08-30T12:53:24;2.35;;;0.73;;
55815;SDS011;41744;52.404;16.942;2023-08-30T12:59:00;0.80;;;0.80;;
55815;SDS011;41744;52.404;16.942;2023-08-30T13:01:26;1.00;;;0.90;;
55815;SDS011;41744;52.404;16.942;2023-08-30T13:03:52;3.47;;;1.58;;
55815;SDS011;41744;52.404;16.942;2023-08-30T13:06:18;5.55;;;1.85;;
55815;SDS011;41744;52.404;16.942;2023-08-30T13:08:44;2.33;;;1.20;;
55815;SDS011;41744;52.404;16.942;2023-08-30T13:11:10;6.43;;;1.60;;
55815;SDS011;41744;52.404;16.942;2023-08-30T13:13:37;4.22;;;1.30;;
55815;SDS011;41744;52.404;16.942;2023-08-30T13:19:06;7.15;;;1.63;;
55815;SDS011;41744;52.404;16.942;2023-08-30T13:21:32;6.10;;;3.20;;
55815;SDS011;41744;52.404;16.942;2023-08-30T13:23:58;9.55;;;3.58;;
55815;SDS011;41744;52.404;16.942;2023-08-30T13:26:24;3.78;;;1.65;;
55815;SDS011;41744;52.404;16.942;2023-08-30T13:28:50;2.22;;;1.20;;
55815;SDS011;41744;52.404;16.942;2023-08-30T13:31:16;4.07;;;1.25;;
55815;SDS011;41744;52.404;16.942;2023-08-30T13:33:42;2.38;;;1.20;;
55815;SDS011;41744;52.404;16.942;2023-08-30T13:36:17;4.68;;;1.70;;
55815;SDS011;41744;52.404;16.942;2023-08-30T13:38:44;4.45;;;1.27;;
55815;SDS011;41744;52.404;16.942;2023-08-30T13:41:10;3.40;;;1.55;;
55815;SDS011;41744;52.404;16.942;2023-08-30T13:43:36;3.25;;;1.20;;
55815;SDS011;41744;52.404;16.942;2023-08-30T13:49:06;2.38;;;1.00;;
55815;SDS011;41744;52.404;16.942;2023-08-30T13:51:32;4.68;;;1.45;;
55815;SDS011;41744;52.404;16.942;2023-08-30T13:57:02;4.97;;;1.60;;
55815;SDS011;41744;52.404;16.942;2023-08-30T13:59:28;6.07;;;1.67;;
55815;SDS011;41744;52.404;16.942;2023-08-30T14:01:55;1.98;;;1.30;;
55815;SDS011;41744;52.404;16.942;2023-08-30T14:04:23;4.13;;;1.40;;
55815;SDS011;41744;52.404;16.942;2023-08-30T14:06:50;1.92;;;1.33;;
55815;SDS011;41744;52.404;16.942;2023-08-30T14:09:17;3.08;;;1.02;;
55815;SDS011;41744;52.404;16.942;2023-08-30T14:11:43;1.55;;;0.70;;
55815;SDS011;41744;52.404;16.942;2023-08-30T14:14:09;1.45;;;0.80;;
55815;SDS011;41744;52.404;16.942;2023-08-30T14:16:35;2.60;;;0.90;;
55815;SDS011;41744;52.404;16.942;2023-08-30T14:19:02;3.60;;;0.70;;
55815;SDS011;41744;52.404;16.942;2023-08-30T14:21:30;2.55;;;1.20;;
55815;SDS011;41744;52.404;16.942;2023-08-30T14:23:56;2.20;;;0.85;;
55815;SDS011;41744;52.404;16.942;2023-08-30T14:26:22;2.72;;;0.85;;
55815;SDS011;41744;52.404;16.942;2023-08-30T14:28:48;2.38;;;1.13;;
55815;SDS011;41744;52.404;16.942;2023-08-30T14:31:14;5.10;;;2.13;;
55815;SDS011;41744;52.404;16.942;2023-08-30T14:33:43;3.08;;;1.95;;
55815;SDS011;41744;52.404;16.942;2023-08-30T14:39:13;3.17;;;1.50;;
55815;SDS011;41744;52.404;16.942;2023-08-30T14:41:40;4.07;;;1.15;;
55815;SDS011;41744;52.404;16.942;2023-08-30T14:47:09;3.95;;;1.23;;
55815;SDS011;41744;52.404;16.942;2023-08-30T14:49:35;15.35;;;1.67;;
55815;SDS011;41744;52.404;16.942;2023-08-30T14:52:01;1.92;;;1.10;;
55815;SDS011;41744;52.404;16.942;2023-08-30T14:57:31;6.93;;;1.50;;
55815;SDS011;41744;52.404;16.942;2023-08-30T14:59:57;2.60;;;1.30;;
55815;SDS011;41744;52.404;16.942;2023-08-30T15:02:22;4.05;;;1.60;;
55815;SDS011;41744;52.404;16.942;2023-08-30T15:04:49;6.75;;;1.67;;
55815;SDS011;41744;52.404;16.942;2023-08-30T15:07:15;2.85;;;1.42;;
55815;SDS011;41744;52.404;16.942;2023-08-30T15:09:41;7.15;;;2.50;;
55815;SDS011;41744;52.404;16.942;2023-08-30T15:12:07;4.88;;;2.20;;
55815;SDS011;41744;52.404;16.942;2023-08-30T15:17:36;5.22;;;1.50;;
55815;SDS011;41744;52.404;16.942;2023-08-30T15:20:02;2.88;;;1.60;;
55815;SDS011;41744;52.404;16.942;2023-08-30T15:22:29;5.13;;;1.50;;
55815;SDS011;41744;52.404;16.942;2023-08-30T15:24:55;4.03;;;1.40;;
55815;SDS011;41744;52.404;16.942;2023-08-30T15:27:21;4.05;;;2.08;;
55815;SDS011;41744;52.404;16.942;2023-08-30T15:29:47;2.35;;;1.63;;
55815;SDS011;41744;52.404;16.942;2023-08-30T15:32:18;2.33;;;1.55;;
55815;SDS011;41744;52.404;16.942;2023-08-30T15:37:48;3.38;;;1.77;;
55815;SDS011;41744;52.404;16.942;2023-08-30T15:40:14;3.65;;;1.50;;
55815;SDS011;41744;52.404;16.942;2023-08-30T15:42:40;5.75;;;1.90;;
55815;SDS011;41744;52.404;16.942;2023-08-30T15:48:09;4.30;;;1.80;;
55815;SDS011;41744;52.404;16.942;2023-08-30T15:50:36;4.75;;;1.85;;
55815;SDS011;41744;52.404;16.942;2023-08-30T15:53:02;4.00;;;1.77;;
55815;SDS011;41744;52.404;16.942;2023-08-30T15:55:28;3.45;;;1.92;;
55815;SDS011;41744;52.404;16.942;2023-08-30T15:57:55;2.75;;;1.98;;
55815;SDS011;41744;52.404;16.942;2023-08-30T16:00:22;4.45;;;2.15;;
55815;SDS011;41744;52.404;16.942;2023-08-30T16:02:49;2.97;;;2.00;;
55815;SDS011;41744;52.404;16.942;2023-08-30T16:08:20;6.50;;;1.92;;
55815;SDS011;41744;52.404;16.942;2023-08-30T16:10:54;4.57;;;2.20;;
55815;SDS011;41744;52.404;16.942;2023-08-30T16:13:20;5.82;;;2.17;;
55815;SDS011;41744;52.404;16.942;2023-08-30T16:15:46;3.85;;;2.05;;
55815;SDS011;41744;52.404;16.942;2023-08-30T16:18:12;5.75;;;2.50;;
55815;SDS011;41744;52.404;16.942;2023-08-30T16:20:39;3.05;;;2.20;;
55815;SDS011;41744;52.404;16.942;2023-08-30T16:23:05;3.42;;;2.00;;
55815;SDS011;41744;52.404;16.942;2023-08-30T16:28:34;2.75;;;1.88;;
55815;SDS011;41744;52.404;16.942;2023-08-30T16:31:04;2.70;;;2.10;;
55815;SDS011;41744;52.404;16.942;2023-08-30T16:33:30;4.55;;;2.40;;
55815;SDS011;41744;52.404;16.942;2023-08-30T16:35:57;5.15;;;2.35;;
55815;SDS011;41744;52.404;16.942;2023-08-30T16:38:23;4.40;;;2.50;;
55815;SDS011;41744;52.404;16.942;2023-08-30T16:40:50;3.58;;;2.10;;
55815;SDS011;41744;52.404;16.942;2023-08-30T16:43:16;3.63;;;1.98;;
55815;SDS011;41744;52.404;16.942;2023-08-30T16:48:45;8.15;;;2.88;;
55815;SDS011;41744;52.404;16.942;2023-08-30T16:51:11;3.65;;;2.25;;